Time;durP1;ratioP1;P1;durP2;ratioP2;P2;SDS_P1;SDS_P2;PMS_P1;PMS_P2;Temp;Humidity;BMP_temperature;BMP_pressure;BME280_temperature;BME280_humidity;BME280_pressure;Samples;Min_cycle;Max_cycle;Signal;HPM_P1;HPM_P2
2023/12/30 00:01:33;;;;;;;;;;;;;;;14.90;50.92;98335.82;67674;1281;1016242;-66
2023/12/30 00:04:35;;;;;;;;;;;;;;;14.87;51.13;98335.02;67663;1281;1015927;-68
2023/12/30 00:07:38;;;;;;;;;;;;;;;14.86;50.93;98335.59;67656;1281;1016510;-72
2023/12/30 00:10:40;;;;;;;;;;;;;;;14.87;51.10;98337.66;67615;1281;1016424;-73
2023/12/30 00:13:43;;;;;;;;;;;;;;;14.84;50.97;98338.11;67598;1281;1016999;-70
2023/12/30 00:16:46;;;;;;;;;;;;;;;14.86;50.80;98337.17;67654;1281;1016190;-73
2023/12/30 00:19:48;;;;;;;;;;;;;;;14.80;51.04;98334.05;67631;1281;1016465;-69
2023/12/30 00:22:51;;;;;;;;;;;;;;;14.74;51.22;98335.27;67604;1281;1016562;-71
2023/12/30 00:25:54;;;;;;;;;;;;;;;14.70;51.24;98328.05;67664;1281;1016372;-72
2023/12/30 00:28:57;;;;;;;;;;;;;;;14.67;51.52;98326.67;67632;1281;1016486;-70
2023/12/30 00:32:02;;;;;;;;;;;;;;;14.73;51.31;98325.80;67680;1281;1016003;-70
2023/12/30 00:35:05;;;;;;;;;;;;;;;14.82;51.03;98322.27;67615;1281;1016336;-73
2023/12/30 00:38:08;;;;;;;;;;;;;;;14.79;51.01;98320.36;67632;1281;1016317;-73
2023/12/30 00:41:13;;;;;;;;;;;;;;;14.89;50.63;98321.42;67603;1281;1016416;-71
2023/12/30 00:44:16;;;;;;;;;;;;;;;14.90;50.51;98321.52;67654;1281;1016648;-73
2023/12/30 00:47:18;;;;;;;;;;;;;;;14.86;50.67;98317.09;67655;1281;1016408;-73
2023/12/30 00:50:21;;;;;;;;;;;;;;;14.90;50.45;98316.95;67611;1281;1016409;-70
2023/12/30 00:53:24;;;;;;;;;;;;;;;14.96;50.40;98315.06;67648;1281;1016294;-66
2023/12/30 00:56:26;;;;;;;;;;;;;;;14.96;50.42;98311.51;67657;1281;1016293;-71
2023/12/30 00:59:29;;;;;;;;;;;;;;;14.96;50.50;98313.84;67624;1281;1016327;-70
2023/12/30 01:02:32;;;;;;;;;;;;;;;15.01;50.44;98310.70;67658;1281;1016111;-73
2023/12/30 01:05:34;;;;;;;;;;;;;;;14.98;50.36;98311.06;67649;1281;1016352;-73
2023/12/30 01:08:37;;;;;;;;;;;;;;;15.06;49.98;98306.61;67617;1281;1016526;-68
2023/12/30 01:11:40;;;;;;;;;;;;;;;14.97;50.28;98299.69;67619;1281;1016441;-73
2023/12/30 01:14:44;;;;;;;;;;;;;;;15.02;50.02;98298.70;67678;1281;1016523;-73
2023/12/30 01:17:47;;;;;;;;;;;;;;;15.04;50.01;98297.45;67653;1281;1016000;-71
2023/12/30 01:20:49;;;;;;;;;;;;;;;14.98;50.16;98291.45;67629;1281;1016376;-73
2023/12/30 01:23:52;;;;;;;;;;;;;;;14.77;50.71;98296.93;67641;1281;1016303;-71
2023/12/30 01:26:55;;;;;;;;;;;;;;;14.75;50.82;98292.92;67648;1281;1016493;-69
2023/12/30 01:29:57;;;;;;;;;;;;;;;14.82;50.77;98299.52;67606;1281;1016770;-70
2023/12/30 01:33:00;;;;;;;;;;;;;;;14.93;50.46;98293.48;67666;1281;1016474;-71
2023/12/30 01:36:03;;;;;;;;;;;;;;;14.82;50.74;98291.27;67663;1281;1016590;-73
2023/12/30 01:39:05;;;;;;;;;;;;;;;14.85;50.55;98287.80;67614;1281;1019526;-71
2023/12/30 01:42:08;;;;;;;;;;;;;;;14.86;50.51;98284.20;67629;1281;1016271;-69
2023/12/30 01:45:11;;;;;;;;;;;;;;;14.79;50.87;98281.48;67640;1281;1016304;-71
2023/12/30 01:48:13;;;;;;;;;;;;;;;14.74;50.83;98274.74;67633;1281;1016695;-71
2023/12/30 01:51:16;;;;;;;;;;;;;;;14.79;50.73;98278.29;67669;1281;1016277;-74
2023/12/30 01:54:18;;;;;;;;;;;;;;;14.78;50.87;98274.54;67660;1281;1016443;-73
2023/12/30 02:00:51;;;;;;;;;;;;;;;14.83;50.62;98269.71;67656;1281;1015949;-72
2023/12/30 02:03:54;;;;;;;;;;;;;;;14.86;50.45;98267.86;67640;1281;1018514;-71
2023/12/30 02:06:57;;;;;;;;;;;;;;;14.89;50.46;98262.90;67630;1281;1016307;-71
2023/12/30 02:09:59;;;;;;;;;;;;;;;14.87;50.28;98258.27;67608;1281;1016215;-70
2023/12/30 02:13:02;;;;;;;;;;;;;;;14.94;50.13;98258.70;67654;1281;1018810;-70
2023/12/30 02:16:05;;;;;;;;;;;;;;;15.02;49.92;98257.10;67637;1281;1016475;-72
2023/12/30 02:19:07;;;;;;;;;;;;;;;15.03;49.75;98249.61;67593;1281;1016477;-71
2023/12/30 02:22:10;;;;;;;;;;;;;;;15.04;49.64;98244.24;67650;1281;1016282;-70
2023/12/30 02:25:13;;;;;;;;;;;;;;;14.84;50.21;98245.88;67660;1281;1016533;-72
2023/12/30 02:28:15;;;;;;;;;;;;;;;14.73;50.72;98248.02;67593;1281;1016156;-70
2023/12/30 02:31:18;;;;;;;;;;;;;;;14.67;51.08;98246.92;67642;1281;1016488;-70
2023/12/30 02:34:21;;;;;;;;;;;;;;;14.82;50.60;98245.30;67661;1279;1016255;-72
2023/12/30 02:40:43;;;;;;;;;;;;;;;15.01;50.28;98239.44;67618;1281;1015866;-73
2023/12/30 02:43:46;;;;;;;;;;;;;;;15.12;50.06;98236.36;67637;1281;1016382;-70
2023/12/30 02:46:49;;;;;;;;;;;;;;;15.09;50.17;98228.71;67620;1281;1016537;-71
2023/12/30 02:49:51;;;;;;;;;;;;;;;15.10;50.10;98233.23;67627;1281;1016061;-73
2023/12/30 02:52:54;;;;;;;;;;;;;;;15.11;50.01;98231.30;67649;1281;1015755;-74
2023/12/30 02:55:57;;;;;;;;;;;;;;;15.24;49.79;98232.49;67628;1281;1016259;-73
2023/12/30 02:59:00;;;;;;;;;;;;;;;15.20;49.82;98228.58;67606;1281;1016145;-73
2023/12/30 03:02:02;;;;;;;;;;;;;;;15.24;49.89;98225.77;67654;1281;1016451;-73
2023/12/30 03:05:05;;;;;;;;;;;;;;;15.31;49.66;98220.36;67605;1281;1016434;-72
2023/12/30 03:08:08;;;;;;;;;;;;;;;15.24;49.97;98221.73;67593;1281;1016425;-66
2023/12/30 03:11:11;;;;;;;;;;;;;;;15.37;49.56;98227.98;67640;1281;1016658;-68
2023/12/30 03:14:13;;;;;;;;;;;;;;;15.47;49.44;98225.33;67640;1281;1016484;-73
2023/12/30 03:17:16;;;;;;;;;;;;;;;15.51;49.24;98228.48;67594;1281;1016412;-73
2023/12/30 03:20:19;;;;;;;;;;;;;;;15.56;49.14;98230.64;67676;1279;1016281;-70
2023/12/30 03:23:21;;;;;;;;;;;;;;;15.59;49.13;98235.31;67625;1281;1016388;-73
2023/12/30 03:26:24;;;;;;;;;;;;;;;15.63;48.94;98228.41;67604;1281;1015847;-74
2023/12/30 03:29:26;;;;;;;;;;;;;;;15.59;49.20;98230.91;67617;1281;1016408;-73
2023/12/30 03:32:29;;;;;;;;;;;;;;;15.67;48.88;98231.42;67633;1281;1016114;-73
2023/12/30 03:35:33;;;;;;;;;;;;;;;15.66;48.96;98222.88;67621;1281;1016887;-72
2023/12/30 03:38:36;;;;;;;;;;;;;;;15.61;48.76;98214.50;67606;1281;1016898;-71
2023/12/30 03:41:39;;;;;;;;;;;;;;;15.68;48.86;98206.29;67656;1281;1016662;-70
2023/12/30 03:44:41;;;;;;;;;;;;;;;15.70;48.76;98199.27;67630;1281;1016223;-70
2023/12/30 03:47:44;;;;;;;;;;;;;;;15.80;48.57;98191.85;67590;1281;1017653;-73
2023/12/30 03:50:47;;;;;;;;;;;;;;;15.83;48.40;98186.09;67631;1281;1016069;-69
2023/12/30 03:53:50;;;;;;;;;;;;;;;15.80;48.49;98179.54;67659;1281;1016203;-73
2023/12/30 03:56:54;;;;;;;;;;;;;;;15.48;49.45;98185.77;67636;1281;1016301;-72
2023/12/30 03:59:57;;;;;;;;;;;;;;;15.41;49.54;98184.63;67658;1281;1016530;-73
2023/12/30 04:03:00;;;;;;;;;;;;;;;15.46;49.52;98184.52;67639;1281;1016351;-73
2023/12/30 04:06:03;;;;;;;;;;;;;;;15.57;49.07;98177.85;67628;1281;1016446;-72
2023/12/30 04:09:05;;;;;;;;;;;;;;;15.49;49.12;98180.02;67649;1281;1016404;-70
2023/12/30 04:12:08;;;;;;;;;;;;;;;15.30;49.60;98180.91;67606;1281;1016317;-70
2023/12/30 04:15:11;;;;;;;;;;;;;;;15.39;49.48;98177.93;67605;1281;1016433;-71
2023/12/30 04:18:14;;;;;;;;;;;;;;;15.39;49.32;98175.23;67632;1281;1016329;-73
2023/12/30 04:21:16;;;;;;;;;;;;;;;15.37;49.18;98172.09;67583;1281;1016393;-72
2023/12/30 04:24:19;;;;;;;;;;;;;;;15.34;49.44;98192.66;67609;1281;1016487;-70
2023/12/30 04:27:22;;;;;;;;;;;;;;;15.39;49.37;98196.10;67634;1281;1017508;-73
2023/12/30 04:30:25;;;;;;;;;;;;;;;15.45;49.40;98193.08;67646;1281;1016293;-73
2023/12/30 04:33:28;;;;;;;;;;;;;;;15.59;48.86;98189.83;67592;1281;1016770;-72
2023/12/30 04:36:31;;;;;;;;;;;;;;;15.52;49.05;98189.23;67619;1281;1017359;-69
2023/12/30 04:39:33;;;;;;;;;;;;;;;15.44;49.27;98195.42;67632;1281;1016227;-68
2023/12/30 04:42:36;;;;;;;;;;;;;;;15.36;49.58;98194.09;67607;1281;1016214;-70
2023/12/30 04:45:39;;;;;;;;;;;;;;;15.36;49.58;98194.27;67591;1281;1016402;-69
2023/12/30 04:48:41;;;;;;;;;;;;;;;15.29;49.71;98184.17;67636;1281;1016475;-71
2023/12/30 04:51:44;;;;;;;;;;;;;;;15.30;49.90;98182.13;67619;1281;1016513;-73
2023/12/30 04:54:46;;;;;;;;;;;;;;;15.35;49.57;98181.04;67576;1281;1016367;-71
2023/12/30 04:57:49;;;;;;;;;;;;;;;15.38;49.72;98190.73;67591;1281;1016479;-73
2023/12/30 05:00:52;;;;;;;;;;;;;;;15.41;49.31;98186.60;67616;1281;1016115;-73
2023/12/30 05:03:54;;;;;;;;;;;;;;;15.49;49.07;98191.60;67597;1281;1016931;-74
2023/12/30 05:06:57;;;;;;;;;;;;;;;15.46;49.16;98198.42;67613;1281;1016483;-68
2023/12/30 05:10:00;;;;;;;;;;;;;;;15.40;49.25;98201.61;67630;1281;1016262;-69
2023/12/30 05:13:02;;;;;;;;;;;;;;;15.47;49.18;98210.46;67650;1281;1016132;-74
2023/12/30 05:16:05;;;;;;;;;;;;;;;15.45;48.96;98206.33;67595;1281;1015614;-70
2023/12/30 05:19:08;;;;;;;;;;;;;;;15.45;48.97;98206.58;67627;1281;1018468;-71
2023/12/30 05:22:10;;;;;;;;;;;;;;;15.48;48.74;98214.45;67638;1281;1016457;-74
2023/12/30 05:25:13;;;;;;;;;;;;;;;15.56;48.72;98207.19;67602;1281;1016385;-71
2023/12/30 05:28:16;;;;;;;;;;;;;;;15.57;48.71;98212.94;67643;1281;1016420;-73
2023/12/30 05:31:19;;;;;;;;;;;;;;;15.54;48.63;98201.27;67617;1281;1016412;-71
2023/12/30 05:34:21;;;;;;;;;;;;;;;15.53;48.90;98210.35;67598;1281;1015965;-71
2023/12/30 05:37:24;;;;;;;;;;;;;;;15.44;49.19;98207.10;67631;1281;1016424;-73
2023/12/30 05:40:26;;;;;;;;;;;;;;;15.55;48.80;98206.44;67621;1281;1016111;-72
2023/12/30 05:43:29;;;;;;;;;;;;;;;15.47;49.08;98203.77;67636;1281;1016559;-73
2023/12/30 05:46:32;;;;;;;;;;;;;;;15.42;49.06;98214.08;67655;1281;1015751;-73
2023/12/30 05:49:35;;;;;;;;;;;;;;;15.56;48.66;98220.79;67631;1281;1016284;-71
2023/12/30 05:52:39;;;;;;;;;;;;;;;15.59;48.63;98221.55;67588;1281;1016567;-73
2023/12/30 05:55:41;;;;;;;;;;;;;;;15.61;48.42;98224.54;67565;1281;1015982;-73
2023/12/30 05:58:44;;;;;;;;;;;;;;;15.59;48.51;98225.07;67607;1281;1016417;-73
2023/12/30 06:01:47;;;;;;;;;;;;;;;15.57;48.67;98215.05;67568;1281;1016224;-74
2023/12/30 06:04:49;;;;;;;;;;;;;;;15.51;48.85;98218.43;67547;1281;1016275;-71
2023/12/30 06:07:52;;;;;;;;;;;;;;;15.47;48.95;98226.38;67648;1281;1016461;-73
2023/12/30 06:10:55;;;;;;;;;;;;;;;15.44;48.74;98225.55;67616;1281;1016504;-73
2023/12/30 06:13:58;;;;;;;;;;;;;;;15.48;48.85;98233.00;67576;1281;1016498;-73
2023/12/30 06:17:00;;;;;;;;;;;;;;;15.34;49.11;98233.73;67628;1281;1016498;-72
2023/12/30 06:20:04;;;;;;;;;;;;;;;15.26;49.12;98230.32;67582;1281;1016394;-73
2023/12/30 06:23:07;;;;;;;;;;;;;;;15.34;49.04;98230.58;67599;1281;1018404;-70
2023/12/30 06:26:10;;;;;;;;;;;;;;;15.31;49.07;98229.00;67591;1281;1016401;-69
2023/12/30 06:29:12;;;;;;;;;;;;;;;15.24;49.13;98232.11;67627;1281;1017346;-72
2023/12/30 06:32:15;;;;;;;;;;;;;;;15.24;49.09;98233.67;67632;1281;1016448;-73
2023/12/30 06:35:18;;;;;;;;;;;;;;;15.23;48.87;98230.46;67577;1281;1016434;-71
2023/12/30 06:38:20;;;;;;;;;;;;;;;15.18;49.26;98239.85;67618;1281;1016546;-71
2023/12/30 06:41:23;;;;;;;;;;;;;;;15.15;49.20;98233.80;67624;1281;1016373;-69
2023/12/30 06:44:26;;;;;;;;;;;;;;;15.11;49.16;98232.95;67555;1281;1016541;-73
2023/12/30 06:47:29;;;;;;;;;;;;;;;15.16;49.26;98230.55;67616;1281;1016008;-73
2023/12/30 06:50:32;;;;;;;;;;;;;;;15.02;49.27;98238.98;67588;1281;1016514;-72
2023/12/30 06:53:34;;;;;;;;;;;;;;;14.92;49.36;98234.21;67623;1281;1016902;-72
2023/12/30 06:56:37;;;;;;;;;;;;;;;14.82;49.35;98236.00;67624;1281;1016062;-72
2023/12/30 06:59:40;;;;;;;;;;;;;;;14.82;49.21;98237.96;67586;1281;1016730;-67
2023/12/30 07:02:42;;;;;;;;;;;;;;;14.79;49.20;98242.30;67615;1281;1016702;-73
2023/12/30 07:05:45;;;;;;;;;;;;;;;14.75;49.32;98251.05;67610;1281;1016205;-70
2023/12/30 07:08:47;;;;;;;;;;;;;;;14.61;49.51;98254.17;67579;1281;1017467;-73
2023/12/30 07:11:50;;;;;;;;;;;;;;;14.54;49.76;98264.93;67598;1281;1016451;-70
2023/12/30 07:14:53;;;;;;;;;;;;;;;14.56;49.60;98272.36;67644;1281;1016350;-69
2023/12/30 07:17:56;;;;;;;;;;;;;;;14.55;49.61;98277.55;67643;1281;1016256;-69
2023/12/30 07:20:58;;;;;;;;;;;;;;;14.48;49.84;98286.76;67615;1281;1015961;-73
2023/12/30 07:24:01;;;;;;;;;;;;;;;14.41;49.92;98295.27;67636;1281;1016106;-71
2023/12/30 07:27:03;;;;;;;;;;;;;;;14.56;49.68;98292.76;67617;1281;1019106;-66
2023/12/30 07:30:06;;;;;;;;;;;;;;;14.67;49.29;98302.23;67633;1281;1017150;-70
2023/12/30 07:33:09;;;;;;;;;;;;;;;14.58;49.73;98310.23;67634;1281;1016746;-69
2023/12/30 07:36:11;;;;;;;;;;;;;;;14.64;49.58;98310.56;67617;1281;1015891;-69
2023/12/30 07:39:14;;;;;;;;;;;;;;;14.67;49.61;98316.09;67597;1281;1016177;-73
2023/12/30 07:42:17;;;;;;;;;;;;;;;14.70;49.69;98313.41;67629;1281;1016315;-72
2023/12/30 07:45:20;;;;;;;;;;;;;;;14.68;50.16;98320.30;67622;1281;1016285;-73
2023/12/30 07:48:22;;;;;;;;;;;;;;;14.60;50.42;98317.92;67574;1281;1016408;-71
2023/12/30 07:51:25;;;;;;;;;;;;;;;14.66;50.59;98322.05;67621;1281;1016492;-72
2023/12/30 07:54:28;;;;;;;;;;;;;;;14.62;50.27;98318.16;67589;1281;1016762;-71
2023/12/30 07:57:31;;;;;;;;;;;;;;;14.71;50.06;98329.15;67580;1281;1016210;-64
2023/12/30 08:00:33;;;;;;;;;;;;;;;14.86;49.84;98335.76;67636;1281;1016460;-72
2023/12/30 08:03:36;;;;;;;;;;;;;;;14.89;49.95;98342.44;67621;1281;1016005;-69
2023/12/30 08:06:39;;;;;;;;;;;;;;;14.83;50.23;98350.67;67589;1281;1016165;-70
2023/12/30 08:09:41;;;;;;;;;;;;;;;14.80;50.59;98348.85;67637;1281;1016598;-69
2023/12/30 08:12:44;;;;;;;;;;;;;;;14.90;50.07;98339.64;67560;1281;1016333;-73
2023/12/30 08:15:47;;;;;;;;;;;;;;;14.79;50.45;98335.39;67572;1281;1016517;-73
2023/12/30 08:18:50;;;;;;;;;;;;;;;14.85;50.94;98334.80;67600;1281;1015944;-67
2023/12/30 08:21:52;;;;;;;;;;;;;;;14.84;50.81;98340.02;67614;1281;1016222;-71
2023/12/30 08:24:55;;;;;;;;;;;;;;;14.90;50.26;98332.51;67583;1281;1016464;-70
2023/12/30 08:27:58;;;;;;;;;;;;;;;14.81;50.79;98346.05;67649;1281;1016018;-74
2023/12/30 08:31:00;;;;;;;;;;;;;;;14.58;51.47;98340.99;67606;1281;1016197;-69
2023/12/30 08:34:03;;;;;;;;;;;;;;;14.54;51.82;98345.35;67590;1281;1016380;-65
2023/12/30 08:37:08;;;;;;;;;;;;;;;14.44;52.20;98344.58;67637;1278;1016289;-68
2023/12/30 08:40:11;;;;;;;;;;;;;;;14.42;52.72;98349.67;67593;1281;1016615;-70
2023/12/30 08:43:14;;;;;;;;;;;;;;;14.78;52.26;98348.11;67630;1281;1016343;-73
2023/12/30 08:46:17;;;;;;;;;;;;;;;15.00;52.26;98345.15;67573;1281;1016497;-69
2023/12/30 08:49:20;;;;;;;;;;;;;;;15.12;51.84;98349.73;67638;1281;1016368;-73
2023/12/30 08:52:24;;;;;;;;;;;;;;;15.34;51.43;98342.16;67569;1281;1016417;-65
2023/12/30 08:55:27;;;;;;;;;;;;;;;15.56;51.03;98346.20;67595;1281;1018913;-64
2023/12/30 08:58:30;;;;;;;;;;;;;;;15.66;50.57;98338.79;67616;1281;1016522;-67
2023/12/30 09:01:33;;;;;;;;;;;;;;;15.62;49.88;98329.19;67623;1281;1016564;-71
2023/12/30 09:04:35;;;;;;;;;;;;;;;15.69;49.93;98334.52;67570;1281;1016542;-73
2023/12/30 09:07:38;;;;;;;;;;;;;;;15.96;49.47;98337.08;67636;1281;1016479;-68
2023/12/30 09:10:41;;;;;;;;;;;;;;;16.10;48.65;98349.69;67574;1281;1018074;-72
2023/12/30 09:13:44;;;;;;;;;;;;;;;16.00;48.05;98360.36;67640;1281;1016430;-73
2023/12/30 09:16:46;;;;;;;;;;;;;;;15.97;48.63;98364.30;67613;1281;1016475;-73
2023/12/30 09:19:49;;;;;;;;;;;;;;;16.07;47.78;98359.48;67616;1281;1019802;-72
2023/12/30 09:22:51;;;;;;;;;;;;;;;16.16;47.45;98376.70;65122;1281;6327288;-71
2023/12/30 09:26:03;;;;;;;;;;;;;;;16.19;47.60;98371.85;67618;1281;1016512;-71
2023/12/30 09:29:08;;;;;;;;;;;;;;;16.10;46.51;98379.17;67581;1281;1016395;-69
2023/12/30 09:32:11;;;;;;;;;;;;;;;15.94;46.74;98385.36;67617;1281;1015695;-74
2023/12/30 09:35:13;;;;;;;;;;;;;;;15.79;47.11;98400.09;67568;1281;1016357;-73
2023/12/30 09:38:16;;;;;;;;;;;;;;;15.66;47.68;98401.92;67540;1281;1016636;-69
2023/12/30 09:41:19;;;;;;;;;;;;;;;15.73;47.98;98402.88;67628;1281;1016475;-74
2023/12/30 09:44:23;;;;;;;;;;;;;;;14.84;53.51;98476.23;67610;1281;1016311;-71
2023/12/30 09:47:26;;;;;;;;;;;;;;;13.63;93.84;98498.29;67602;1281;1017111;-71
2023/12/30 09:50:29;;;;;;;;;;;;;;;13.07;72.38;98484.39;67609;1281;1016464;-72
2023/12/30 09:53:32;;;;;;;;;;;;;;;12.84;69.33;98475.78;67594;1281;1016144;-68
2023/12/30 09:56:35;;;;;;;;;;;;;;;12.62;69.55;98468.10;67583;1281;1018906;-68
2023/12/30 09:59:39;;;;;;;;;;;;;;;12.54;67.58;98473.75;67612;1281;1016326;-69
2023/12/30 10:02:42;;;;;;;;;;;;;;;12.39;65.95;98483.67;67565;1281;1016523;-64
2023/12/30 10:05:44;;;;;;;;;;;;;;;12.30;65.21;98472.89;67629;1281;1016468;-68
2023/12/30 10:08:47;;;;;;;;;;;;;;;12.15;64.65;98474.85;67625;1281;1018578;-72
2023/12/30 10:11:50;;;;;;;;;;;;;;;12.06;63.14;98495.14;67573;1281;1016008;-65
2023/12/30 10:14:53;;;;;;;;;;;;;;;12.22;62.02;98485.61;67628;1281;1016281;-67
2023/12/30 10:17:55;;;;;;;;;;;;;;;12.44;61.97;98479.27;67652;1281;1015872;-72
2023/12/30 10:20:58;;;;;;;;;;;;;;;12.66;61.77;98473.23;67596;1281;1016208;-67
2023/12/30 10:24:03;;;;;;;;;;;;;;;12.80;61.52;98465.98;67613;1281;1016485;-73
2023/12/30 10:27:06;;;;;;;;;;;;;;;12.93;61.27;98467.66;67588;1281;1016100;-68
2023/12/30 10:30:11;;;;;;;;;;;;;;;13.32;60.35;98467.02;67594;1281;1016195;-74
2023/12/30 10:33:15;;;;;;;;;;;;;;;13.56;59.11;98475.30;67631;1281;1016522;-65
2023/12/30 10:36:17;;;;;;;;;;;;;;;13.62;58.45;98477.45;67653;1281;1016478;-66
2023/12/30 10:39:20;;;;;;;;;;;;;;;13.72;58.47;98477.06;67596;1281;1017144;-70
2023/12/30 10:42:23;;;;;;;;;;;;;;;13.77;57.44;98469.98;67637;1281;1017329;-72
2023/12/30 10:45:26;;;;;;;;;;;;;;;13.86;56.10;98475.23;67587;1281;1016295;-67
2023/12/30 10:48:29;;;;;;;;;;;;;;;13.99;55.08;98472.61;67662;1281;1016385;-68
2023/12/30 10:51:32;;;;;;;;;;;;;;;14.21;53.57;98471.41;67592;1281;1016723;-69
2023/12/30 10:54:35;;;;;;;;;;;;;;;14.37;54.12;98476.21;67625;1281;1016489;-70
2023/12/30 10:57:38;;;;;;;;;;;;;;;14.17;52.69;98482.80;67613;1281;1016320;-73
2023/12/30 11:00:41;;;;;;;;;;;;;;;14.26;52.80;98476.96;67617;1281;1017840;-68
2023/12/30 11:03:43;;;;;;;;;;;;;;;14.40;52.42;98477.73;67618;1281;1016442;-73
2023/12/30 11:06:46;;;;;;;;;;;;;;;14.58;52.73;98467.96;67609;1281;1016484;-66
2023/12/30 11:09:49;;;;;;;;;;;;;;;14.63;50.73;98473.59;67640;1281;1016076;-69
2023/12/30 11:12:53;;;;;;;;;;;;;;;14.64;51.72;98459.73;67626;1281;1016186;-70
2023/12/30 11:15:56;;;;;;;;;;;;;;;14.75;50.13;98469.07;67564;1281;1016455;-70
2023/12/30 11:19:03;;;;;;;;;;;;;;;14.72;50.42;98453.62;67592;1281;1016382;-73
2023/12/30 11:22:05;;;;;;;;;;;;;;;14.81;49.22;98456.29;67636;1281;1016452;-74
2023/12/30 11:25:08;;;;;;;;;;;;;;;14.72;49.24;98466.35;67579;1281;1016455;-73
2023/12/30 11:28:11;;;;;;;;;;;;;;;14.71;49.08;98467.82;67620;1281;1017237;-72
2023/12/30 11:31:13;;;;;;;;;;;;;;;14.77;48.89;98479.30;67658;1281;1016394;-68
2023/12/30 11:34:16;;;;;;;;;;;;;;;14.74;48.35;98478.30;67620;1281;1016262;-72
2023/12/30 11:37:18;;;;;;;;;;;;;;;14.79;47.43;98483.67;67617;1281;1016850;-73
2023/12/30 11:40:21;;;;;;;;;;;;;;;14.44;47.55;98489.16;67635;1281;1018594;-69
2023/12/30 11:43:25;;;;;;;;;;;;;;;14.50;47.49;98480.77;67605;1281;1016315;-74
2023/12/30 11:46:28;;;;;;;;;;;;;;;14.32;47.07;98488.09;67634;1281;1016452;-67
2023/12/30 11:49:31;;;;;;;;;;;;;;;14.56;47.27;98480.84;67606;1281;1016282;-74
2023/12/30 11:52:34;;;;;;;;;;;;;;;14.63;47.09;98475.86;67633;1281;1016503;-66
2023/12/30 11:55:37;;;;;;;;;;;;;;;14.54;46.77;98482.92;67598;1281;1016711;-73
2023/12/30 11:58:40;;;;;;;;;;;;;;;14.50;47.37;98474.98;67637;1281;1016537;-68
2023/12/30 12:01:45;;;;;;;;;;;;;;;14.30;46.97;98487.40;67577;1281;1016332;-70
2023/12/30 12:04:49;;;;;;;;;;;;;;;14.26;46.55;98483.27;67602;1281;1016321;-70
2023/12/30 12:07:52;;;;;;;;;;;;;;;14.07;45.69;98494.86;67668;1281;1016496;-64
2023/12/30 12:10:54;;;;;;;;;;;;;;;14.08;46.21;98488.45;67654;1281;1016231;-69
2023/12/30 12:13:58;;;;;;;;;;;;;;;14.16;44.61;98505.93;67593;1281;1018330;-69
2023/12/30 12:17:00;;;;;;;;;;;;;;;14.17;45.33;98491.25;67647;1281;1016402;-74
2023/12/30 12:20:04;;;;;;;;;;;;;;;14.19;44.23;98496.33;67617;1281;1016524;-71
2023/12/30 12:23:08;;;;;;;;;;;;;;;14.31;44.43;98491.30;67655;1281;1016449;-71
2023/12/30 12:26:10;;;;;;;;;;;;;;;14.29;44.51;98500.95;67611;1278;1016506;-68
2023/12/30 12:29:14;;;;;;;;;;;;;;;14.24;44.71;98509.13;67604;1281;1016487;-66
2023/12/30 12:32:20;;;;;;;;;;;;;;;14.28;43.41;98504.71;67599;1281;1017216;-72
2023/12/30 12:35:23;;;;;;;;;;;;;;;14.04;42.41;98528.11;67640;1281;1016417;-64
2023/12/30 12:38:26;;;;;;;;;;;;;;;14.24;42.75;98509.14;67632;1281;1016332;-68
2023/12/30 12:41:29;;;;;;;;;;;;;;;14.17;41.52;98526.02;68308;1281;1015463;-70
2023/12/30 12:44:31;;;;;;;;;;;;;;;14.38;42.19;98514.51;68245;1281;1015933;-65
2023/12/30 12:47:34;;;;;;;;;;;;;;;14.31;42.35;98522.60;67485;1281;1016467;-68
2023/12/30 12:50:37;;;;;;;;;;;;;;;14.29;42.03;98522.77;67558;1281;1016396;-70
2023/12/30 12:53:39;;;;;;;;;;;;;;;14.33;42.24;98527.21;67521;1281;1016392;-74
2023/12/30 12:56:44;;;;;;;;;;;;;;;14.01;42.42;98524.64;67576;1281;1016300;-66
2023/12/30 12:59:46;;;;;;;;;;;;;;;14.05;42.80;98518.04;67625;1281;1016394;-67
2023/12/30 13:02:50;;;;;;;;;;;;;;;14.33;42.81;98519.80;67639;1281;1016437;-67
2023/12/30 13:05:52;;;;;;;;;;;;;;;14.34;42.60;98532.59;67620;1281;1016482;-70
2023/12/30 13:08:56;;;;;;;;;;;;;;;13.95;42.72;98526.16;67633;1281;1016516;-70
2023/12/30 13:11:59;;;;;;;;;;;;;;;13.87;42.95;98535.45;67606;1281;1016468;-71
2023/12/30 13:15:03;;;;;;;;;;;;;;;13.86;42.79;98547.78;67588;1281;1016314;-70
2023/12/30 13:18:11;;;;;;;;;;;;;;;13.88;42.76;98547.46;67610;1281;1016281;-73
2023/12/30 13:21:13;;;;;;;;;;;;;;;13.81;42.65;98546.59;67644;1281;1016077;-68
2023/12/30 13:24:16;;;;;;;;;;;;;;;14.00;42.32;98549.40;67606;1281;1016457;-73
2023/12/30 13:27:19;;;;;;;;;;;;;;;13.85;42.26;98570.41;67645;1281;1016363;-68
2023/12/30 13:30:23;;;;;;;;;;;;;;;13.75;42.21;98565.57;67603;1281;1016161;-69
2023/12/30 13:33:25;;;;;;;;;;;;;;;13.80;42.21;98557.23;67677;1281;1016614;-63
2023/12/30 13:36:29;;;;;;;;;;;;;;;13.82;42.36;98568.31;67584;1281;1016229;-70
2023/12/30 13:39:33;;;;;;;;;;;;;;;13.83;42.49;98560.05;67639;1281;1016494;-67
2023/12/30 13:42:36;;;;;;;;;;;;;;;13.74;43.01;98553.02;67618;1281;1016458;-68
2023/12/30 13:45:41;;;;;;;;;;;;;;;13.75;43.17;98558.17;67635;1279;1016469;-66
2023/12/30 13:49:22;;;;;;;;;;;;;;;13.94;42.90;98556.39;67601;1281;1016376;-64
2023/12/30 13:52:17;;;;;;;;;;;;;;;13.96;43.33;98555.13;67668;1281;1016337;-65
2023/12/30 13:55:19;;;;;;;;;;;;;;;13.99;43.45;98559.79;67671;1281;1016236;-63
2023/12/30 13:58:22;;;;;;;;;;;;;;;13.97;43.67;98567.70;67631;1281;1016309;-66
2023/12/30 14:01:25;;;;;;;;;;;;;;;13.87;44.28;98578.19;67626;1281;1016257;-63
2023/12/30 14:04:30;;;;;;;;;;;;;;;13.80;44.33;98579.44;67680;1281;1016424;-63
2023/12/30 14:07:32;;;;;;;;;;;;;;;13.84;44.51;98576.60;67617;1281;1018733;-67
2023/12/30 14:10:36;;;;;;;;;;;;;;;13.95;44.40;98577.38;67665;1281;1017071;-68
2023/12/30 14:13:38;;;;;;;;;;;;;;;13.92;44.40;98578.99;67648;1281;1016588;-69
2023/12/30 14:16:43;;;;;;;;;;;;;;;13.87;44.76;98581.27;67643;1281;1016589;-70
2023/12/30 14:19:47;;;;;;;;;;;;;;;13.87;44.83;98585.02;67684;1281;1016398;-65
2023/12/30 14:22:50;;;;;;;;;;;;;;;13.74;45.20;98588.85;67618;1280;1016332;-65
2023/12/30 14:25:52;;;;;;;;;;;;;;;13.62;45.79;98596.60;67574;1279;1016617;-69
2023/12/30 14:28:55;;;;;;;;;;;;;;;13.58;45.90;98599.19;67846;1281;1016557;-61
2023/12/30 14:31:58;;;;;;;;;;;;;;;13.62;46.09;98595.16;67666;1281;1018589;-61
2023/12/30 14:35:00;;;;;;;;;;;;;;;13.51;46.33;98599.70;67658;1281;1016385;-69
2023/12/30 14:38:04;;;;;;;;;;;;;;;13.42;46.74;98605.35;67588;1281;1016456;-66
2023/12/30 14:41:07;;;;;;;;;;;;;;;13.29;47.01;98604.89;67527;1281;1016884;-70
2023/12/30 14:44:10;;;;;;;;;;;;;;;13.44;46.73;98604.98;67568;1281;1016427;-67
2023/12/30 14:47:13;;;;;;;;;;;;;;;13.41;46.89;98607.71;67522;1281;1016300;-66
2023/12/30 14:50:15;;;;;;;;;;;;;;;13.44;46.87;98609.39;67526;1281;1016807;-65
2023/12/30 14:53:18;;;;;;;;;;;;;;;13.46;46.94;98608.89;67635;1281;1016243;-64
2023/12/30 14:56:23;;;;;;;;;;;;;;;13.36;47.26;98605.25;67634;1281;1016152;-69
2023/12/30 14:59:27;;;;;;;;;;;;;;;13.42;47.06;98611.31;67631;1281;1016266;-67
2023/12/30 15:02:30;;;;;;;;;;;;;;;13.49;46.74;98606.69;67679;1281;1016723;-65
2023/12/30 15:05:33;;;;;;;;;;;;;;;13.41;46.75;98608.59;67649;1281;1016383;-60
2023/12/30 15:08:36;;;;;;;;;;;;;;;13.24;47.81;98615.44;67629;1281;1016192;-63
2023/12/30 15:11:38;;;;;;;;;;;;;;;13.09;49.23;98621.27;67661;1281;1016294;-60
2023/12/30 15:14:41;;;;;;;;;;;;;;;13.03;50.33;98620.35;67680;1281;1016437;-68
2023/12/30 15:17:43;;;;;;;;;;;;;;;13.01;50.71;98619.46;67638;1281;1016405;-68
2023/12/30 15:20:46;;;;;;;;;;;;;;;12.81;51.12;98621.20;67640;1281;1018821;-67
2023/12/30 15:23:49;;;;;;;;;;;;;;;12.66;51.59;98625.14;67678;1281;1016295;-72
2023/12/30 15:26:52;;;;;;;;;;;;;;;12.58;52.31;98630.83;67667;1281;1016162;-71
2023/12/30 15:29:54;;;;;;;;;;;;;;;12.46;52.68;98634.50;67628;1281;1017597;-68
2023/12/30 15:32:59;;;;;;;;;;;;;;;12.39;53.25;98632.18;67654;1281;1016553;-67
2023/12/30 15:36:03;;;;;;;;;;;;;;;12.42;52.70;98627.57;67624;1281;1017261;-72